SWA2133 KDEN-KLAX
Flight info
| Callsign | SWA2133 |
|---|---|
| Flight time | 2h 6m |
| Altitude | 36000 |
| Route | BAYLR6 TEHRU JASSE Q90 DNERO ANJLL4 |
| Aircraft | B738/M-SDE2E3FGHIRWXY/LB1 |
Departure
| Time | 2026-05-03 22:07 |
|---|---|
| Airport | Denver International Airport (KDEN) |
Arrival
| Time | 2026-05-04 00:13 |
|---|---|
| Airport | Los Angeles International Airport (KLAX) |
| Time | Latitude | Longitude | Altitude | Speed | Heading |
|---|---|---|---|---|---|
| 2026-05-03 21:13 | 39.86353 | -104.67044 | 5400 ft | 0 kts | 212° |
| 2026-05-03 21:48 | 39.86365 | -104.67034 | 5400 ft | 2 kts | 212° |
| 2026-05-03 21:48 | 39.86378 | -104.67024 | 5400 ft | 2 kts | 212° |
| 2026-05-03 21:48 | 39.86390 | -104.67013 | 5400 ft | 2 kts | 212° |
| 2026-05-03 21:49 | 39.86403 | -104.67002 | 5400 ft | 2 kts | 212° |
| 2026-05-03 21:49 | 39.86416 | -104.66991 | 5399 ft | 2 kts | 212° |
| 2026-05-03 21:49 | 39.86425 | -104.66984 | 5399 ft | 0 kts | 212° |
| 2026-05-03 21:49 | 39.86438 | -104.66976 | 5399 ft | 2 kts | 185° |
| 2026-05-03 21:50 | 39.86453 | -104.66978 | 5398 ft | 2 kts | 159° |
| 2026-05-03 21:50 | 39.86465 | -104.66988 | 5398 ft | 2 kts | 130° |
| 2026-05-03 21:50 | 39.86473 | -104.67006 | 5397 ft | 2 kts | 101° |
| 2026-05-03 21:50 | 39.86474 | -104.67016 | 5396 ft | 1 kts | 85° |
| 2026-05-03 21:51 | 39.86474 | -104.67023 | 5396 ft | 0 kts | 89° |
| 2026-05-03 21:54 | 39.86474 | -104.66996 | 5397 ft | 9 kts | 90° |
| 2026-05-03 21:54 | 39.86470 | -104.66861 | 5400 ft | 19 kts | 92° |
| 2026-05-03 21:54 | 39.86469 | -104.66679 | 5404 ft | 16 kts | 91° |
| 2026-05-03 21:55 | 39.86478 | -104.66572 | 5407 ft | 9 kts | 65° |
| 2026-05-03 21:55 | 39.86501 | -104.66509 | 5408 ft | 6 kts | 74° |
| 2026-05-03 21:55 | 39.86502 | -104.66451 | 5408 ft | 6 kts | 94° |
| 2026-05-03 21:55 | 39.86502 | -104.66373 | 5408 ft | 11 kts | 86° |
| 2026-05-03 21:56 | 39.86499 | -104.66275 | 5409 ft | 8 kts | 105° |
| 2026-05-03 21:56 | 39.86467 | -104.66230 | 5410 ft | 5 kts | 161° |
| 2026-05-03 21:56 | 39.86427 | -104.66227 | 5411 ft | 5 kts | 179° |
| 2026-05-03 21:56 | 39.86396 | -104.66226 | 5413 ft | 3 kts | 180° |
| 2026-05-03 21:57 | 39.86376 | -104.66226 | 5413 ft | 3 kts | 180° |
| 2026-05-03 21:57 | 39.86320 | -104.66228 | 5415 ft | 12 kts | 181° |
| 2026-05-03 21:57 | 39.86206 | -104.66228 | 5418 ft | 17 kts | 180° |
| 2026-05-03 21:57 | 39.86087 | -104.66231 | 5421 ft | 16 kts | 180° |
| 2026-05-03 21:58 | 39.85984 | -104.66232 | 5423 ft | 13 kts | 180° |
| 2026-05-03 21:58 | 39.85895 | -104.66232 | 5425 ft | 13 kts | 179° |
| 2026-05-03 21:58 | 39.85799 | -104.66234 | 5426 ft | 13 kts | 181° |
| 2026-05-03 21:58 | 39.85699 | -104.66236 | 5426 ft | 14 kts | 181° |
| 2026-05-03 21:59 | 39.85600 | -104.66238 | 5425 ft | 14 kts | 180° |
| 2026-05-03 21:59 | 39.85493 | -104.66238 | 5421 ft | 16 kts | 181° |
| 2026-05-03 21:59 | 39.85370 | -104.66240 | 5417 ft | 18 kts | 181° |
| 2026-05-03 21:59 | 39.85239 | -104.66241 | 5415 ft | 19 kts | 180° |
| 2026-05-03 22:00 | 39.85097 | -104.66242 | 5410 ft | 21 kts | 181° |
| 2026-05-03 22:00 | 39.84938 | -104.66245 | 5403 ft | 23 kts | 181° |
| 2026-05-03 22:00 | 39.84779 | -104.66248 | 5399 ft | 23 kts | 180° |
| 2026-05-03 22:00 | 39.84644 | -104.66247 | 5396 ft | 15 kts | 181° |
| 2026-05-03 22:01 | 39.84535 | -104.66250 | 5394 ft | 16 kts | 180° |
| 2026-05-03 22:01 | 39.84422 | -104.66251 | 5393 ft | 15 kts | 178° |
| 2026-05-03 22:01 | 39.84315 | -104.66249 | 5394 ft | 14 kts | 180° |
| 2026-05-03 22:01 | 39.84226 | -104.66251 | 5397 ft | 11 kts | 181° |
| 2026-05-03 22:02 | 39.84148 | -104.66254 | 5398 ft | 12 kts | 180° |
| 2026-05-03 22:02 | 39.84045 | -104.66255 | 5401 ft | 17 kts | 180° |
| 2026-05-03 22:02 | 39.83923 | -104.66256 | 5404 ft | 18 kts | 180° |
| 2026-05-03 22:02 | 39.83786 | -104.66258 | 5404 ft | 20 kts | 180° |
| 2026-05-03 22:03 | 39.83631 | -104.66259 | 5404 ft | 22 kts | 181° |
| 2026-05-03 22:03 | 39.83474 | -104.66261 | 5404 ft | 22 kts | 180° |
| 2026-05-03 22:03 | 39.83331 | -104.66264 | 5408 ft | 18 kts | 180° |
| 2026-05-03 22:03 | 39.83216 | -104.66264 | 5411 ft | 14 kts | 176° |
| 2026-05-03 22:04 | 39.83124 | -104.66263 | 5412 ft | 12 kts | 180° |
| 2026-05-03 22:04 | 39.83044 | -104.66265 | 5413 ft | 9 kts | 181° |
| 2026-05-03 22:04 | 39.82979 | -104.66268 | 5415 ft | 9 kts | 182° |
| 2026-05-03 22:04 | 39.82917 | -104.66270 | 5416 ft | 8 kts | 178° |
| 2026-05-03 22:05 | 39.82863 | -104.66252 | 5417 ft | 6 kts | 141° |
| 2026-05-03 22:05 | 39.82845 | -104.66192 | 5419 ft | 7 kts | 92° |
| 2026-05-03 22:05 | 39.82845 | -104.66111 | 5418 ft | 9 kts | 92° |
| 2026-05-03 22:05 | 39.82857 | -104.66055 | 5417 ft | 2 kts | 15° |
| 2026-05-03 22:06 | 39.82868 | -104.66054 | 5417 ft | 0 kts | 0° |
| 2026-05-03 22:06 | 39.82948 | -104.66054 | 5416 ft | 42 kts | 359° |
| 2026-05-03 22:06 | 39.83509 | -104.66049 | 5412 ft | 115 kts | 359° |
| 2026-05-03 22:07 | 39.84528 | -104.66030 | 5403 ft | 176 kts | 0° |
| 2026-05-03 22:07 | 39.85847 | -104.66021 | 5698 ft | 202 kts | 357° |
| 2026-05-03 22:07 | 39.87239 | -104.66013 | 6593 ft | 198 kts | 358° |
| 2026-05-03 22:07 | 39.88541 | -104.65963 | 7527 ft | 186 kts | 359° |
| 2026-05-03 22:08 | 39.89828 | -104.66154 | 8056 ft | 187 kts | 329° |
| 2026-05-03 22:08 | 39.90719 | -104.67312 | 8582 ft | 188 kts | 298° |
| 2026-05-03 22:08 | 39.91278 | -104.68873 | 9094 ft | 197 kts | 292° |
| 2026-05-03 22:08 | 39.91742 | -104.70600 | 9596 ft | 207 kts | 286° |
| 2026-05-03 22:09 | 39.91977 | -104.72500 | 10032 ft | 222 kts | 274° |
| 2026-05-03 22:09 | 39.91755 | -104.74564 | 10456 ft | 240 kts | 254° |
| 2026-05-03 22:09 | 39.90836 | -104.76540 | 10884 ft | 266 kts | 229° |
| 2026-05-03 22:10 | 39.87771 | -104.79777 | 11720 ft | 305 kts | 221° |
| 2026-05-03 22:10 | 39.86029 | -104.81545 | 12081 ft | 325 kts | 221° |
| 2026-05-03 22:10 | 39.84211 | -104.83422 | 12446 ft | 344 kts | 221° |
| 2026-05-03 22:10 | 39.82301 | -104.85415 | 12803 ft | 363 kts | 221° |
| 2026-05-03 22:11 | 39.80283 | -104.87528 | 13168 ft | 381 kts | 221° |
| 2026-05-03 22:11 | 39.78319 | -104.89860 | 13519 ft | 390 kts | 229° |
| 2026-05-03 22:11 | 39.76774 | -104.92747 | 13873 ft | 386 kts | 246° |
| 2026-05-03 22:11 | 39.75829 | -104.95993 | 14245 ft | 387 kts | 255° |
| 2026-05-03 22:12 | 39.75202 | -104.99394 | 14612 ft | 387 kts | 260° |
| 2026-05-03 22:12 | 39.74635 | -105.02804 | 14977 ft | 389 kts | 258° |
| 2026-05-03 22:12 | 39.73838 | -105.06152 | 15348 ft | 391 kts | 252° |
| 2026-05-03 22:12 | 39.72840 | -105.09441 | 15717 ft | 393 kts | 249° |
| 2026-05-03 22:13 | 39.71751 | -105.12675 | 16081 ft | 392 kts | 248° |
| 2026-05-03 22:13 | 39.70623 | -105.15920 | 16465 ft | 394 kts | 248° |
| 2026-05-03 22:13 | 39.69497 | -105.19174 | 16818 ft | 395 kts | 248° |
| 2026-05-03 22:13 | 39.68397 | -105.22400 | 17189 ft | 395 kts | 249° |
| 2026-05-03 22:14 | 39.67294 | -105.25691 | 17579 ft | 398 kts | 249° |
| 2026-05-03 22:14 | 39.66200 | -105.28986 | 17949 ft | 401 kts | 249° |
| 2026-05-03 22:14 | 39.65097 | -105.32332 | 18326 ft | 413 kts | 249° |
| 2026-05-03 22:14 | 39.63962 | -105.35779 | 18710 ft | 414 kts | 249° |
| 2026-05-03 22:15 | 39.62839 | -105.39186 | 19089 ft | 416 kts | 249° |
| 2026-05-03 22:15 | 39.61701 | -105.42634 | 19477 ft | 417 kts | 249° |
| 2026-05-03 22:15 | 39.60549 | -105.46122 | 19864 ft | 420 kts | 249° |
| 2026-05-03 22:15 | 39.59407 | -105.49576 | 20243 ft | 422 kts | 249° |
| 2026-05-03 22:16 | 39.58240 | -105.53093 | 20628 ft | 424 kts | 249° |
| 2026-05-03 22:16 | 39.57085 | -105.56561 | 21011 ft | 426 kts | 249° |
| 2026-05-03 22:16 | 39.55895 | -105.60125 | 21403 ft | 429 kts | 249° |
| 2026-05-03 22:16 | 39.54728 | -105.63677 | 21788 ft | 429 kts | 250° |
| 2026-05-03 22:17 | 39.53657 | -105.67268 | 22166 ft | 431 kts | 251° |
| 2026-05-03 22:17 | 39.52647 | -105.70905 | 22544 ft | 433 kts | 252° |
| 2026-05-03 22:17 | 39.51650 | -105.74599 | 22928 ft | 435 kts | 252° |
| 2026-05-03 22:17 | 39.50663 | -105.78283 | 23303 ft | 437 kts | 252° |
| 2026-05-03 22:18 | 39.49655 | -105.82027 | 23691 ft | 440 kts | 252° |
| 2026-05-03 22:18 | 39.48645 | -105.85746 | 24079 ft | 442 kts | 252° |
| 2026-05-03 22:18 | 39.47617 | -105.89503 | 24471 ft | 445 kts | 252° |
| 2026-05-03 22:18 | 39.46580 | -105.93264 | 24860 ft | 446 kts | 252° |
| 2026-05-03 22:19 | 39.45533 | -105.97040 | 25245 ft | 448 kts | 252° |
| 2026-05-03 22:19 | 39.44477 | -106.00831 | 25633 ft | 451 kts | 252° |
| 2026-05-03 22:19 | 39.43402 | -106.04677 | 26025 ft | 454 kts | 252° |
| 2026-05-03 22:19 | 39.42333 | -106.08492 | 26409 ft | 456 kts | 251° |
| 2026-05-03 22:20 | 39.41257 | -106.12324 | 26796 ft | 455 kts | 251° |
| 2026-05-03 22:20 | 39.40185 | -106.16131 | 27182 ft | 454 kts | 251° |
| 2026-05-03 22:20 | 39.39103 | -106.19969 | 27573 ft | 452 kts | 251° |
| 2026-05-03 22:20 | 39.38038 | -106.23739 | 27960 ft | 450 kts | 251° |
| 2026-05-03 22:21 | 39.36955 | -106.27563 | 28357 ft | 448 kts | 251° |
| 2026-05-03 22:21 | 39.35892 | -106.31314 | 28745 ft | 447 kts | 251° |
| 2026-05-03 22:21 | 39.34826 | -106.35072 | 29138 ft | 445 kts | 251° |
| 2026-05-03 22:21 | 39.33762 | -106.38816 | 29532 ft | 444 kts | 251° |
| 2026-05-03 22:22 | 39.32705 | -106.42532 | 29919 ft | 444 kts | 251° |
| 2026-05-03 22:22 | 39.31656 | -106.46217 | 30315 ft | 441 kts | 251° |
| 2026-05-03 22:22 | 39.30589 | -106.49957 | 30723 ft | 441 kts | 251° |
| 2026-05-03 22:22 | 39.29538 | -106.53634 | 31116 ft | 440 kts | 251° |
| 2026-05-03 22:23 | 39.28478 | -106.57345 | 31526 ft | 438 kts | 251° |
| 2026-05-03 22:23 | 39.27423 | -106.61026 | 31929 ft | 437 kts | 251° |
| 2026-05-03 22:23 | 39.26378 | -106.64668 | 32331 ft | 436 kts | 251° |
| 2026-05-03 22:23 | 39.25283 | -106.68307 | 32740 ft | 434 kts | 249° |
| 2026-05-03 22:24 | 39.24038 | -106.71814 | 33144 ft | 434 kts | 244° |
| 2026-05-03 22:24 | 39.22516 | -106.75168 | 33554 ft | 434 kts | 239° |
| 2026-05-03 22:24 | 39.20821 | -106.78329 | 33961 ft | 434 kts | 236° |
| 2026-05-03 22:24 | 39.18999 | -106.81467 | 34373 ft | 433 kts | 235° |
| 2026-05-03 22:25 | 39.17195 | -106.84523 | 34752 ft | 431 kts | 235° |
| 2026-05-03 22:25 | 39.15384 | -106.87591 | 35135 ft | 429 kts | 235° |
| 2026-05-03 22:25 | 39.13595 | -106.90627 | 35516 ft | 427 kts | 235° |
| 2026-05-03 22:25 | 39.11826 | -106.93644 | 35897 ft | 426 kts | 236° |
| 2026-05-03 22:26 | 39.10043 | -106.96693 | 36268 ft | 425 kts | 236° |
| 2026-05-03 22:26 | 39.06506 | -107.02763 | 36390 ft | 423 kts | 236° |
| 2026-05-03 22:27 | 39.03006 | -107.08772 | 36404 ft | 421 kts | 236° |
| 2026-05-03 22:27 | 38.99473 | -107.14835 | 36410 ft | 422 kts | 236° |
| 2026-05-03 22:28 | 38.95991 | -107.20802 | 36400 ft | 421 kts | 236° |
| 2026-05-03 22:28 | 38.92464 | -107.26835 | 36419 ft | 422 kts | 236° |
| 2026-05-03 22:29 | 38.88953 | -107.32827 | 36409 ft | 422 kts | 236° |
| 2026-05-03 22:29 | 38.85432 | -107.38824 | 36425 ft | 420 kts | 236° |
| 2026-05-03 22:30 | 38.81924 | -107.44789 | 36425 ft | 420 kts | 236° |
| 2026-05-03 22:30 | 38.78426 | -107.50729 | 36433 ft | 418 kts | 236° |
| 2026-05-03 22:31 | 38.74923 | -107.56663 | 36431 ft | 419 kts | 236° |
| 2026-05-03 22:31 | 38.71405 | -107.62611 | 36433 ft | 419 kts | 236° |
| 2026-05-03 22:32 | 38.67888 | -107.68549 | 36774 ft | 418 kts | 235° |
| 2026-05-03 22:32 | 38.66140 | -107.71497 | 36501 ft | 420 kts | 235° |
| 2026-05-03 22:32 | 38.64398 | -107.74428 | 36406 ft | 415 kts | 235° |
| 2026-05-03 22:33 | 38.60894 | -107.80322 | 36367 ft | 418 kts | 235° |
| 2026-05-03 22:33 | 38.57378 | -107.86229 | 36315 ft | 418 kts | 235° |
| 2026-05-03 22:34 | 38.53881 | -107.92086 | 36262 ft | 417 kts | 235° |
| 2026-05-03 22:34 | 38.50357 | -107.97980 | 36253 ft | 417 kts | 235° |
| 2026-05-03 22:35 | 38.46847 | -108.03838 | 36326 ft | 416 kts | 235° |
| 2026-05-03 22:35 | 38.43325 | -108.09705 | 36348 ft | 418 kts | 235° |
| 2026-05-03 22:36 | 38.39778 | -108.15608 | 36365 ft | 418 kts | 235° |
| 2026-05-03 22:36 | 38.36253 | -108.21459 | 36364 ft | 416 kts | 235° |
| 2026-05-03 22:37 | 38.32762 | -108.27245 | 36362 ft | 417 kts | 236° |
| 2026-05-03 22:37 | 38.29239 | -108.33074 | 36354 ft | 415 kts | 236° |
| 2026-05-03 22:38 | 38.25708 | -108.38909 | 36343 ft | 417 kts | 236° |
| 2026-05-03 22:38 | 38.22183 | -108.44724 | 36328 ft | 417 kts | 236° |
| 2026-05-03 22:39 | 38.18646 | -108.50546 | 36322 ft | 414 kts | 236° |
| 2026-05-03 22:39 | 38.15131 | -108.56323 | 36328 ft | 415 kts | 236° |
| 2026-05-03 22:40 | 38.11599 | -108.62118 | 36319 ft | 414 kts | 236° |
| 2026-05-03 22:40 | 38.08081 | -108.67876 | 36314 ft | 415 kts | 235° |
| 2026-05-03 22:41 | 38.04551 | -108.73640 | 36295 ft | 413 kts | 235° |
| 2026-05-03 22:41 | 38.01040 | -108.79368 | 36304 ft | 414 kts | 235° |
| 2026-05-03 22:42 | 37.97506 | -108.85120 | 36287 ft | 413 kts | 235° |
| 2026-05-03 22:42 | 37.93991 | -108.90832 | 36279 ft | 413 kts | 236° |
| 2026-05-03 22:43 | 37.90458 | -108.96563 | 36281 ft | 412 kts | 235° |
| 2026-05-03 22:43 | 37.86943 | -109.02254 | 36272 ft | 411 kts | 236° |
| 2026-05-03 22:44 | 37.83437 | -109.07925 | 36263 ft | 410 kts | 236° |
| 2026-05-03 22:44 | 37.79915 | -109.13612 | 36246 ft | 409 kts | 235° |
| 2026-05-03 22:45 | 37.76409 | -109.19262 | 36242 ft | 411 kts | 236° |
| 2026-05-03 22:45 | 37.72897 | -109.24912 | 36241 ft | 408 kts | 236° |
| 2026-05-03 22:46 | 37.69389 | -109.30543 | 36239 ft | 408 kts | 236° |
| 2026-05-03 22:46 | 37.65910 | -109.36118 | 36238 ft | 406 kts | 236° |
| 2026-05-03 22:47 | 37.62406 | -109.41730 | 36220 ft | 406 kts | 236° |
| 2026-05-03 22:47 | 37.58907 | -109.47326 | 36211 ft | 407 kts | 236° |
| 2026-05-03 22:48 | 37.55428 | -109.52870 | 36208 ft | 403 kts | 236° |
| 2026-05-03 22:48 | 37.51942 | -109.58418 | 36219 ft | 406 kts | 236° |
| 2026-05-03 22:49 | 37.48457 | -109.63956 | 36235 ft | 404 kts | 236° |
| 2026-05-03 22:49 | 37.44963 | -109.69502 | 36221 ft | 404 kts | 235° |
| 2026-05-03 22:50 | 37.41497 | -109.74990 | 36232 ft | 401 kts | 236° |
| 2026-05-03 22:50 | 37.38020 | -109.80494 | 36223 ft | 401 kts | 236° |
| 2026-05-03 22:51 | 37.34581 | -109.85924 | 36220 ft | 400 kts | 236° |
| 2026-05-03 22:51 | 37.31115 | -109.91386 | 36223 ft | 400 kts | 235° |
| 2026-05-03 22:52 | 37.27661 | -109.96822 | 36232 ft | 399 kts | 236° |
| 2026-05-03 22:52 | 37.24192 | -110.02279 | 36218 ft | 398 kts | 236° |
| 2026-05-03 22:53 | 37.20742 | -110.07694 | 36218 ft | 399 kts | 236° |
| 2026-05-03 22:53 | 37.17287 | -110.13107 | 36214 ft | 398 kts | 236° |
| 2026-05-03 22:54 | 37.13837 | -110.18500 | 36216 ft | 395 kts | 236° |
| 2026-05-03 22:54 | 37.10402 | -110.23862 | 36204 ft | 395 kts | 236° |
| 2026-05-03 22:55 | 37.06962 | -110.29221 | 36210 ft | 395 kts | 236° |
| 2026-05-03 22:55 | 37.03525 | -110.34568 | 36212 ft | 395 kts | 236° |
| 2026-05-03 22:56 | 37.00067 | -110.39936 | 36212 ft | 394 kts | 236° |
| 2026-05-03 22:56 | 36.96636 | -110.45255 | 36197 ft | 393 kts | 236° |
| 2026-05-03 22:57 | 36.93218 | -110.50555 | 36200 ft | 391 kts | 236° |
| 2026-05-03 22:57 | 36.89789 | -110.55857 | 36198 ft | 393 kts | 236° |
| 2026-05-03 22:58 | 36.86356 | -110.61157 | 36201 ft | 392 kts | 236° |
| 2026-05-03 22:58 | 36.82927 | -110.66441 | 36201 ft | 392 kts | 236° |
| 2026-05-03 22:59 | 36.79494 | -110.71725 | 36206 ft | 392 kts | 236° |
| 2026-05-03 22:59 | 36.76084 | -110.76966 | 36194 ft | 391 kts | 236° |
| 2026-05-03 23:00 | 36.72650 | -110.82231 | 36197 ft | 390 kts | 236° |
| 2026-05-03 23:00 | 36.69221 | -110.87483 | 36192 ft | 390 kts | 236° |
| 2026-05-03 23:01 | 36.65811 | -110.92693 | 36195 ft | 388 kts | 236° |
| 2026-05-03 23:01 | 36.62412 | -110.97886 | 36200 ft | 389 kts | 236° |
| 2026-05-03 23:02 | 36.59002 | -111.03089 | 36200 ft | 389 kts | 236° |
| 2026-05-03 23:02 | 36.55576 | -111.08305 | 36202 ft | 387 kts | 236° |
| 2026-05-03 23:03 | 36.52177 | -111.13467 | 36201 ft | 388 kts | 237° |
| 2026-05-03 23:03 | 36.48776 | -111.18628 | 36207 ft | 384 kts | 236° |
| 2026-05-03 23:04 | 36.45388 | -111.23763 | 36196 ft | 386 kts | 236° |
| 2026-05-03 23:04 | 36.42012 | -111.28867 | 36204 ft | 385 kts | 237° |
| 2026-05-03 23:05 | 36.38616 | -111.33998 | 36214 ft | 384 kts | 236° |
| 2026-05-03 23:05 | 36.35227 | -111.39113 | 36208 ft | 385 kts | 237° |
| 2026-05-03 23:06 | 36.31822 | -111.44236 | 36209 ft | 381 kts | 237° |
| 2026-05-03 23:06 | 36.28466 | -111.49281 | 36215 ft | 383 kts | 237° |
| 2026-05-03 23:07 | 36.25078 | -111.54366 | 36214 ft | 382 kts | 237° |
| 2026-05-03 23:07 | 36.21691 | -111.59444 | 36215 ft | 382 kts | 237° |
| 2026-05-03 23:08 | 36.18340 | -111.64462 | 36214 ft | 382 kts | 237° |
| 2026-05-03 23:08 | 36.14964 | -111.69511 | 36218 ft | 381 kts | 237° |
| 2026-05-03 23:09 | 36.11586 | -111.74550 | 36220 ft | 380 kts | 237° |
| 2026-05-03 23:09 | 36.08325 | -111.79631 | 36221 ft | 376 kts | 241° |
| 2026-05-03 23:10 | 36.05812 | -111.85224 | 36230 ft | 370 kts | 249° |
| 2026-05-03 23:10 | 36.03865 | -111.91071 | 36229 ft | 366 kts | 252° |
| 2026-05-03 23:11 | 36.02031 | -111.96954 | 36228 ft | 369 kts | 252° |
| 2026-05-03 23:11 | 36.00191 | -112.02807 | 36245 ft | 364 kts | 252° |
| 2026-05-03 23:12 | 35.98340 | -112.08634 | 36230 ft | 368 kts | 252° |
| 2026-05-03 23:12 | 35.96463 | -112.14484 | 36226 ft | 368 kts | 252° |
| 2026-05-03 23:13 | 35.94577 | -112.20333 | 36229 ft | 365 kts | 252° |
| 2026-05-03 23:13 | 35.92701 | -112.26148 | 36218 ft | 367 kts | 251° |
| 2026-05-03 23:14 | 35.90806 | -112.32004 | 36212 ft | 365 kts | 252° |
| 2026-05-03 23:14 | 35.88919 | -112.37826 | 36220 ft | 367 kts | 252° |
| 2026-05-03 23:15 | 35.87035 | -112.43626 | 36214 ft | 366 kts | 252° |
| 2026-05-03 23:15 | 35.85139 | -112.49454 | 36213 ft | 366 kts | 251° |
| 2026-05-03 23:16 | 35.83248 | -112.55251 | 36212 ft | 367 kts | 251° |
| 2026-05-03 23:16 | 35.81351 | -112.61065 | 36211 ft | 366 kts | 251° |
| 2026-05-03 23:17 | 35.79443 | -112.66894 | 36204 ft | 368 kts | 251° |
| 2026-05-03 23:17 | 35.77543 | -112.72697 | 36211 ft | 367 kts | 251° |
| 2026-05-03 23:18 | 35.75649 | -112.78465 | 36201 ft | 366 kts | 250° |
| 2026-05-03 23:18 | 35.73736 | -112.84268 | 36204 ft | 365 kts | 250° |
| 2026-05-03 23:19 | 35.71827 | -112.90059 | 36201 ft | 366 kts | 250° |
| 2026-05-03 23:19 | 35.69928 | -112.95809 | 36206 ft | 365 kts | 250° |
| 2026-05-03 23:20 | 35.68003 | -113.01624 | 36201 ft | 367 kts | 251° |
| 2026-05-03 23:20 | 35.66088 | -113.07403 | 36201 ft | 366 kts | 251° |
| 2026-05-03 23:21 | 35.64177 | -113.13163 | 36189 ft | 365 kts | 250° |
| 2026-05-03 23:21 | 35.62250 | -113.18951 | 36185 ft | 365 kts | 250° |
| 2026-05-03 23:22 | 35.59376 | -113.27567 | 36179 ft | 363 kts | 250° |
| 2026-05-03 23:22 | 35.57462 | -113.33285 | 36165 ft | 364 kts | 250° |
| 2026-05-03 23:23 | 35.55535 | -113.39025 | 36152 ft | 363 kts | 250° |
| 2026-05-03 23:23 | 35.53612 | -113.44752 | 36150 ft | 364 kts | 250° |
| 2026-05-03 23:24 | 35.51694 | -113.50454 | 36139 ft | 363 kts | 250° |
| 2026-05-03 23:24 | 35.49770 | -113.56158 | 36131 ft | 364 kts | 250° |
| 2026-05-03 23:25 | 35.47846 | -113.61852 | 36122 ft | 363 kts | 250° |
| 2026-05-03 23:25 | 35.45905 | -113.67587 | 36116 ft | 362 kts | 250° |
| 2026-05-03 23:26 | 35.43988 | -113.73246 | 36103 ft | 362 kts | 249° |
| 2026-05-03 23:26 | 35.42057 | -113.78931 | 36107 ft | 362 kts | 250° |
| 2026-05-03 23:27 | 35.40131 | -113.84596 | 36075 ft | 362 kts | 250° |
| 2026-05-03 23:27 | 35.38192 | -113.90280 | 36069 ft | 361 kts | 250° |
| 2026-05-03 23:28 | 35.36258 | -113.95943 | 36058 ft | 360 kts | 250° |
| 2026-05-03 23:28 | 35.34329 | -114.01579 | 36053 ft | 360 kts | 250° |
| 2026-05-03 23:29 | 35.32382 | -114.07259 | 36048 ft | 360 kts | 250° |
| 2026-05-03 23:29 | 35.30447 | -114.12888 | 36046 ft | 360 kts | 250° |
| 2026-05-03 23:30 | 35.28497 | -114.18555 | 36038 ft | 360 kts | 250° |
| 2026-05-03 23:30 | 35.26567 | -114.24161 | 36036 ft | 360 kts | 249° |
| 2026-05-03 23:31 | 35.24613 | -114.29819 | 36011 ft | 360 kts | 249° |
| 2026-05-03 23:31 | 35.22676 | -114.35416 | 35981 ft | 359 kts | 250° |
| 2026-05-03 23:32 | 35.20729 | -114.41039 | 35938 ft | 359 kts | 249° |
| 2026-05-03 23:32 | 35.18785 | -114.46635 | 35918 ft | 360 kts | 249° |
| 2026-05-03 23:33 | 35.16837 | -114.52227 | 35909 ft | 358 kts | 250° |
| 2026-05-03 23:33 | 35.14869 | -114.57870 | 35914 ft | 360 kts | 250° |
| 2026-05-03 23:34 | 35.12921 | -114.63454 | 35926 ft | 358 kts | 250° |
| 2026-05-03 23:34 | 35.10976 | -114.69048 | 35953 ft | 360 kts | 249° |
| 2026-05-03 23:35 | 35.09036 | -114.74631 | 35978 ft | 358 kts | 249° |
| 2026-05-03 23:35 | 35.07081 | -114.80254 | 36007 ft | 359 kts | 248° |
| 2026-05-03 23:36 | 35.05134 | -114.85837 | 35996 ft | 358 kts | 248° |
| 2026-05-03 23:36 | 35.03166 | -114.91412 | 35998 ft | 358 kts | 247° |
| 2026-05-03 23:37 | 35.00908 | -114.96810 | 35995 ft | 360 kts | 244° |
| 2026-05-03 23:37 | 34.98522 | -115.02151 | 35993 ft | 359 kts | 244° |
| 2026-05-03 23:38 | 34.96144 | -115.07531 | 35996 ft | 360 kts | 245° |
| 2026-05-03 23:38 | 34.93804 | -115.12881 | 35987 ft | 359 kts | 244° |
| 2026-05-03 23:39 | 34.91459 | -115.18262 | 35986 ft | 360 kts | 245° |
| 2026-05-03 23:39 | 34.89123 | -115.23618 | 35886 ft | 354 kts | 245° |
| 2026-05-03 23:40 | 34.87986 | -115.26217 | 35408 ft | 349 kts | 245° |
| 2026-05-03 23:40 | 34.86851 | -115.28816 | 34923 ft | 343 kts | 245° |
| 2026-05-03 23:40 | 34.85743 | -115.31348 | 34447 ft | 338 kts | 245° |
| 2026-05-03 23:40 | 34.84652 | -115.33842 | 33971 ft | 333 kts | 245° |
| 2026-05-03 23:41 | 34.83573 | -115.36310 | 33508 ft | 330 kts | 245° |
| 2026-05-03 23:41 | 34.82506 | -115.38751 | 33088 ft | 331 kts | 245° |
| 2026-05-03 23:41 | 34.81413 | -115.41257 | 32668 ft | 337 kts | 245° |
| 2026-05-03 23:41 | 34.80307 | -115.43787 | 32253 ft | 342 kts | 244° |
| 2026-05-03 23:42 | 34.79194 | -115.46336 | 31837 ft | 345 kts | 244° |
| 2026-05-03 23:42 | 34.78130 | -115.48980 | 31407 ft | 347 kts | 246° |
| 2026-05-03 23:42 | 34.77143 | -115.51663 | 30985 ft | 351 kts | 247° |
| 2026-05-03 23:42 | 34.76178 | -115.54365 | 30569 ft | 354 kts | 246° |
| 2026-05-03 23:43 | 34.75188 | -115.57137 | 30142 ft | 357 kts | 246° |
| 2026-05-03 23:43 | 34.74191 | -115.59906 | 29718 ft | 361 kts | 246° |
| 2026-05-03 23:43 | 34.73179 | -115.62689 | 29293 ft | 362 kts | 245° |
| 2026-05-03 23:43 | 34.72158 | -115.65475 | 28871 ft | 365 kts | 245° |
| 2026-05-03 23:44 | 34.71048 | -115.68491 | 28419 ft | 370 kts | 245° |
| 2026-05-03 23:44 | 34.70056 | -115.71179 | 28022 ft | 373 kts | 245° |
| 2026-05-03 23:44 | 34.68997 | -115.74045 | 27596 ft | 375 kts | 245° |
| 2026-05-03 23:44 | 34.67928 | -115.76939 | 27168 ft | 377 kts | 244° |
| 2026-05-03 23:45 | 34.66853 | -115.79840 | 26747 ft | 379 kts | 244° |
| 2026-05-03 23:45 | 34.65773 | -115.82752 | 26319 ft | 373 kts | 244° |
| 2026-05-03 23:45 | 34.64731 | -115.85565 | 25893 ft | 366 kts | 244° |
| 2026-05-03 23:45 | 34.63697 | -115.88353 | 25460 ft | 360 kts | 244° |
| 2026-05-03 23:46 | 34.62684 | -115.91089 | 25039 ft | 354 kts | 244° |
| 2026-05-03 23:46 | 34.61673 | -115.93831 | 24610 ft | 351 kts | 244° |
| 2026-05-03 23:46 | 34.60680 | -115.96528 | 24177 ft | 352 kts | 243° |
| 2026-05-03 23:46 | 34.59698 | -115.99195 | 23938 ft | 348 kts | 244° |
| 2026-05-03 23:47 | 34.58703 | -116.01897 | 23937 ft | 350 kts | 243° |
| 2026-05-03 23:47 | 34.57697 | -116.04617 | 23937 ft | 355 kts | 244° |
| 2026-05-03 23:47 | 34.56693 | -116.07332 | 23946 ft | 352 kts | 243° |
| 2026-05-03 23:47 | 34.55699 | -116.10021 | 23947 ft | 352 kts | 243° |
| 2026-05-03 23:48 | 34.54691 | -116.12743 | 23951 ft | 352 kts | 243° |
| 2026-05-03 23:48 | 34.53700 | -116.15417 | 23962 ft | 350 kts | 243° |
| 2026-05-03 23:48 | 34.52708 | -116.18090 | 23974 ft | 350 kts | 243° |
| 2026-05-03 23:48 | 34.51705 | -116.20789 | 23981 ft | 351 kts | 243° |
| 2026-05-03 23:49 | 34.50706 | -116.23480 | 23985 ft | 349 kts | 244° |
| 2026-05-03 23:49 | 34.49710 | -116.26162 | 23996 ft | 349 kts | 243° |
| 2026-05-03 23:49 | 34.48711 | -116.28846 | 23989 ft | 349 kts | 243° |
| 2026-05-03 23:49 | 34.47721 | -116.31506 | 23991 ft | 347 kts | 243° |
| 2026-05-03 23:50 | 34.46737 | -116.34147 | 23984 ft | 346 kts | 243° |
| 2026-05-03 23:50 | 34.45736 | -116.36827 | 23983 ft | 346 kts | 244° |
| 2026-05-03 23:50 | 34.44752 | -116.39465 | 23982 ft | 344 kts | 244° |
| 2026-05-03 23:50 | 34.43769 | -116.42094 | 23984 ft | 344 kts | 243° |
| 2026-05-03 23:51 | 34.42785 | -116.44726 | 23981 ft | 343 kts | 244° |
| 2026-05-03 23:51 | 34.41803 | -116.47347 | 23990 ft | 343 kts | 243° |
| 2026-05-03 23:51 | 34.40792 | -116.49958 | 23987 ft | 344 kts | 242° |
| 2026-05-03 23:51 | 34.39735 | -116.52551 | 23992 ft | 342 kts | 242° |
| 2026-05-03 23:52 | 34.38668 | -116.55109 | 23990 ft | 342 kts | 241° |
| 2026-05-03 23:52 | 34.37592 | -116.57680 | 23999 ft | 341 kts | 242° |
| 2026-05-03 23:52 | 34.36527 | -116.60236 | 24012 ft | 340 kts | 241° |
| 2026-05-03 23:52 | 34.35464 | -116.62791 | 24021 ft | 339 kts | 241° |
| 2026-05-03 23:53 | 34.34417 | -116.65321 | 24028 ft | 340 kts | 241° |
| 2026-05-03 23:53 | 34.33350 | -116.67899 | 24039 ft | 341 kts | 241° |
| 2026-05-03 23:53 | 34.32302 | -116.70469 | 24042 ft | 338 kts | 242° |
| 2026-05-03 23:53 | 34.31294 | -116.72980 | 23793 ft | 332 kts | 242° |
| 2026-05-03 23:54 | 34.30297 | -116.75472 | 23145 ft | 334 kts | 242° |
| 2026-05-03 23:54 | 34.29278 | -116.78016 | 22434 ft | 336 kts | 241° |
| 2026-05-03 23:54 | 34.28256 | -116.80562 | 21752 ft | 338 kts | 241° |
| 2026-05-03 23:54 | 34.27239 | -116.83089 | 21174 ft | 337 kts | 242° |
| 2026-05-03 23:55 | 34.26221 | -116.85616 | 20620 ft | 335 kts | 241° |
| 2026-05-03 23:55 | 34.25200 | -116.88148 | 20077 ft | 333 kts | 241° |
| 2026-05-03 23:55 | 34.24197 | -116.90633 | 19502 ft | 333 kts | 241° |
| 2026-05-03 23:55 | 34.23185 | -116.93139 | 19133 ft | 328 kts | 241° |
| 2026-05-03 23:56 | 34.22191 | -116.95599 | 19110 ft | 328 kts | 240° |
| 2026-05-03 23:56 | 34.21193 | -116.98100 | 19095 ft | 335 kts | 243° |
| 2026-05-03 23:56 | 34.20333 | -117.00697 | 18945 ft | 330 kts | 246° |
| 2026-05-03 23:56 | 34.19614 | -117.03310 | 18364 ft | 332 kts | 249° |
| 2026-05-03 23:57 | 34.18934 | -117.05981 | 17660 ft | 335 kts | 249° |
| 2026-05-03 23:57 | 34.18258 | -117.08649 | 17111 ft | 334 kts | 248° |
| 2026-05-03 23:57 | 34.17566 | -117.11320 | 16495 ft | 336 kts | 248° |
| 2026-05-03 23:57 | 34.16856 | -117.14000 | 16039 ft | 333 kts | 248° |
| 2026-05-03 23:58 | 34.16144 | -117.16644 | 15609 ft | 331 kts | 248° |
| 2026-05-03 23:58 | 34.15425 | -117.19270 | 15026 ft | 332 kts | 247° |
| 2026-05-03 23:58 | 34.14697 | -117.21909 | 14417 ft | 334 kts | 247° |
| 2026-05-03 23:58 | 34.13961 | -117.24569 | 14013 ft | 330 kts | 247° |
| 2026-05-03 23:59 | 34.13243 | -117.27170 | 13996 ft | 330 kts | 247° |
| 2026-05-03 23:59 | 34.12506 | -117.29833 | 13979 ft | 334 kts | 248° |
| 2026-05-03 23:59 | 34.11775 | -117.32479 | 13982 ft | 334 kts | 247° |
| 2026-05-03 23:59 | 34.11030 | -117.35174 | 13975 ft | 334 kts | 248° |
| 2026-05-04 00:00 | 34.10300 | -117.37832 | 13983 ft | 333 kts | 248° |
| 2026-05-04 00:00 | 34.09626 | -117.40444 | 13910 ft | 322 kts | 249° |
| 2026-05-04 00:00 | 34.08833 | -117.42959 | 13509 ft | 317 kts | 237° |
| 2026-05-04 00:00 | 34.07557 | -117.45145 | 13222 ft | 310 kts | 228° |
| 2026-05-04 00:01 | 34.06246 | -117.47211 | 13151 ft | 311 kts | 231° |
| 2026-05-04 00:01 | 34.05112 | -117.49462 | 13121 ft | 318 kts | 239° |
| 2026-05-04 00:01 | 34.04256 | -117.51980 | 12879 ft | 322 kts | 249° |
| 2026-05-04 00:01 | 34.03696 | -117.54619 | 12472 ft | 323 kts | 255° |
| 2026-05-04 00:02 | 34.03321 | -117.57336 | 12053 ft | 320 kts | 258° |
| 2026-05-04 00:02 | 34.03051 | -117.60070 | 11694 ft | 316 kts | 260° |
| 2026-05-04 00:02 | 34.02817 | -117.62759 | 11372 ft | 310 kts | 260° |
| 2026-05-04 00:02 | 34.02583 | -117.65401 | 11028 ft | 305 kts | 259° |
| 2026-05-04 00:03 | 34.02343 | -117.67976 | 10588 ft | 298 kts | 258° |
| 2026-05-04 00:03 | 34.02108 | -117.70450 | 10279 ft | 286 kts | 258° |
| 2026-05-04 00:03 | 34.01878 | -117.72839 | 10189 ft | 287 kts | 258° |
| 2026-05-04 00:03 | 34.01643 | -117.75250 | 10083 ft | 288 kts | 258° |
| 2026-05-04 00:04 | 34.01406 | -117.77708 | 10046 ft | 288 kts | 258° |
| 2026-05-04 00:04 | 34.01172 | -117.80151 | 10042 ft | 289 kts | 258° |
| 2026-05-04 00:04 | 34.00936 | -117.82617 | 10015 ft | 289 kts | 258° |
| 2026-05-04 00:04 | 34.00692 | -117.85147 | 9710 ft | 287 kts | 258° |
| 2026-05-04 00:05 | 34.00466 | -117.87616 | 9241 ft | 278 kts | 259° |
| 2026-05-04 00:05 | 34.00256 | -117.89961 | 8789 ft | 269 kts | 259° |
| 2026-05-04 00:05 | 34.00051 | -117.92154 | 8346 ft | 257 kts | 259° |
| 2026-05-04 00:05 | 33.99848 | -117.94224 | 7950 ft | 245 kts | 259° |
| 2026-05-04 00:06 | 33.99648 | -117.96235 | 7595 ft | 236 kts | 258° |
| 2026-05-04 00:06 | 33.99453 | -117.98183 | 7248 ft | 232 kts | 258° |
| 2026-05-04 00:06 | 33.99265 | -118.00076 | 6912 ft | 224 kts | 258° |
| 2026-05-04 00:06 | 33.99072 | -118.02013 | 6568 ft | 223 kts | 259° |
| 2026-05-04 00:07 | 33.98877 | -118.03968 | 6223 ft | 221 kts | 259° |
| 2026-05-04 00:07 | 33.98700 | -118.05748 | 5917 ft | 213 kts | 259° |
| 2026-05-04 00:07 | 33.98521 | -118.07542 | 5605 ft | 211 kts | 259° |
| 2026-05-04 00:07 | 33.98341 | -118.09334 | 5285 ft | 209 kts | 260° |
| 2026-05-04 00:08 | 33.98169 | -118.11070 | 4984 ft | 206 kts | 261° |
| 2026-05-04 00:08 | 33.97993 | -118.12806 | 4691 ft | 203 kts | 261° |
| 2026-05-04 00:08 | 33.97823 | -118.14494 | 4404 ft | 201 kts | 261° |
| 2026-05-04 00:08 | 33.97657 | -118.16157 | 4118 ft | 199 kts | 261° |
| 2026-05-04 00:09 | 33.97493 | -118.17777 | 3847 ft | 196 kts | 262° |
| 2026-05-04 00:09 | 33.97329 | -118.19410 | 3568 ft | 195 kts | 262° |
| 2026-05-04 00:09 | 33.97165 | -118.21029 | 3297 ft | 193 kts | 262° |
| 2026-05-04 00:09 | 33.97004 | -118.22620 | 3033 ft | 191 kts | 262° |
| 2026-05-04 00:10 | 33.96846 | -118.24181 | 2773 ft | 189 kts | 262° |
| 2026-05-04 00:10 | 33.96688 | -118.25736 | 2515 ft | 187 kts | 262° |
| 2026-05-04 00:10 | 33.96531 | -118.27280 | 2258 ft | 185 kts | 262° |
| 2026-05-04 00:10 | 33.96377 | -118.28799 | 2012 ft | 181 kts | 262° |
| 2026-05-04 00:11 | 33.96233 | -118.30220 | 1791 ft | 164 kts | 262° |
| 2026-05-04 00:11 | 33.96098 | -118.31541 | 1523 ft | 151 kts | 262° |
| 2026-05-04 00:11 | 33.95973 | -118.32760 | 1356 ft | 145 kts | 261° |
| 2026-05-04 00:11 | 33.95850 | -118.33962 | 1171 ft | 147 kts | 262° |
| 2026-05-04 00:12 | 33.95724 | -118.35199 | 1011 ft | 145 kts | 262° |
| 2026-05-04 00:12 | 33.95597 | -118.36384 | 804 ft | 144 kts | 261° |
| 2026-05-04 00:12 | 33.95474 | -118.37573 | 558 ft | 143 kts | 262° |
| 2026-05-04 00:12 | 33.95356 | -118.38727 | 393 ft | 137 kts | 261° |
| 2026-05-04 00:13 | 33.95241 | -118.39857 | 203 ft | 132 kts | 262° |
| 2026-05-04 00:13 | 33.95137 | -118.40896 | 123 ft | 108 kts | 261° |
| 2026-05-04 00:13 | 33.95073 | -118.41548 | 123 ft | 42 kts | 262° |
| 2026-05-04 00:13 | 33.95038 | -118.41898 | 123 ft | 31 kts | 264° |
| 2026-05-04 00:14 | 33.95005 | -118.42073 | 120 ft | 18 kts | 243° |
| 2026-05-04 00:14 | 33.94958 | -118.42165 | 120 ft | 10 kts | 237° |
| 2026-05-04 00:14 | 33.94923 | -118.42219 | 120 ft | 4 kts | 228° |
| 2026-05-04 00:14 | 33.94918 | -118.42225 | 120 ft | 0 kts | 229° |
| 2026-05-04 00:16 | 33.94908 | -118.42239 | 120 ft | 9 kts | 228° |
| 2026-05-04 00:16 | 33.94853 | -118.42284 | 118 ft | 10 kts | 192° |
| 2026-05-04 00:16 | 33.94773 | -118.42279 | 117 ft | 11 kts | 171° |
| 2026-05-04 00:17 | 33.94703 | -118.42256 | 117 ft | 9 kts | 138° |
| 2026-05-04 00:17 | 33.94690 | -118.42179 | 117 ft | 9 kts | 84° |
| 2026-05-04 00:17 | 33.94696 | -118.42109 | 118 ft | 7 kts | 83° |
| 2026-05-04 00:17 | 33.94702 | -118.42057 | 119 ft | 5 kts | 83° |
| 2026-05-04 00:18 | 33.94706 | -118.42015 | 120 ft | 7 kts | 83° |
| 2026-05-04 00:18 | 33.94717 | -118.41913 | 120 ft | 17 kts | 82° |
| 2026-05-04 00:18 | 33.94735 | -118.41743 | 120 ft | 22 kts | 83° |
| 2026-05-04 00:18 | 33.94751 | -118.41585 | 120 ft | 15 kts | 83° |
| 2026-05-04 00:19 | 33.94762 | -118.41473 | 122 ft | 10 kts | 83° |
| 2026-05-04 00:19 | 33.94778 | -118.41392 | 122 ft | 9 kts | 69° |
| 2026-05-04 00:19 | 33.94793 | -118.41312 | 123 ft | 11 kts | 82° |
| 2026-05-04 00:19 | 33.94809 | -118.41155 | 123 ft | 17 kts | 82° |
| 2026-05-04 00:20 | 33.94825 | -118.41000 | 123 ft | 18 kts | 84° |
| 2026-05-04 00:20 | 33.94843 | -118.40843 | 123 ft | 18 kts | 82° |
| 2026-05-04 00:20 | 33.94858 | -118.40690 | 120 ft | 15 kts | 82° |
| 2026-05-04 00:20 | 33.94873 | -118.40558 | 120 ft | 15 kts | 83° |
| 2026-05-04 00:21 | 33.94884 | -118.40427 | 119 ft | 16 kts | 82° |
| 2026-05-04 00:21 | 33.94897 | -118.40308 | 117 ft | 11 kts | 83° |
| 2026-05-04 00:21 | 33.94906 | -118.40211 | 117 ft | 11 kts | 84° |
| 2026-05-04 00:21 | 33.94907 | -118.40115 | 116 ft | 11 kts | 112° |
| 2026-05-04 00:22 | 33.94868 | -118.40077 | 115 ft | 6 kts | 148° |
| 2026-05-04 00:22 | 33.94828 | -118.40063 | 115 ft | 5 kts | 196° |
| 2026-05-04 00:22 | 33.94804 | -118.40082 | 115 ft | 2 kts | 220° |
| 2026-05-04 00:22 | 33.94799 | -118.40087 | 115 ft | 0 kts | 220° |